createdAt,value
2023-02-01T00:02:41.503Z,86.18
2023-02-01T00:05:43.196Z,86.68
2023-02-01T00:08:44.815Z,86.65
2023-02-01T00:11:46.450Z,86.68
2023-02-01T00:14:48.096Z,87.16
2023-02-01T00:17:54.705Z,86.71
2023-02-01T00:20:56.364Z,86.59
2023-02-01T00:23:58.332Z,86.85
2023-02-01T00:27:00.004Z,87.05
2023-02-01T00:30:01.666Z,86.91
2023-02-01T00:33:03.337Z,87.10
2023-02-01T00:36:07.323Z,86.80
2023-02-01T00:39:09.448Z,86.49
2023-02-01T00:42:11.043Z,86.55
2023-02-01T00:45:12.649Z,86.64
2023-02-01T00:48:14.291Z,86.76
2023-02-01T00:51:18.820Z,86.36
2023-02-01T00:54:20.518Z,86.04
2023-02-01T00:57:22.059Z,85.98
2023-02-01T01:00:23.924Z,85.80
2023-02-01T01:03:25.781Z,85.48
2023-02-01T01:06:29.054Z,85.30
2023-02-01T01:09:30.688Z,85.29
2023-02-01T01:12:32.211Z,84.76
2023-02-01T01:15:38.506Z,84.59
2023-02-01T01:18:40.669Z,84.31
2023-02-01T01:21:42.297Z,84.10
2023-02-01T01:24:43.906Z,83.71
2023-02-01T01:27:45.577Z,83.91
2023-02-01T01:30:47.322Z,83.97
2023-02-01T01:33:51.394Z,83.38
2023-02-01T01:36:53.035Z,83.41
2023-02-01T01:39:54.578Z,83.52
2023-02-01T01:42:57.154Z,83.56
2023-02-01T01:45:58.741Z,83.27
2023-02-01T01:49:03.121Z,83.00
2023-02-01T01:52:05.051Z,82.95
2023-02-01T01:55:06.949Z,82.64
2023-02-01T01:58:14.526Z,82.59
2023-02-01T02:01:16.326Z,83.00
2023-02-01T02:04:17.972Z,83.19
2023-02-01T02:07:27.733Z,83.43
2023-02-01T02:10:29.765Z,83.76
2023-02-01T02:13:38.156Z,83.72
2023-02-01T02:17:05.604Z,83.65
2023-02-01T02:20:44.775Z,83.74
2023-02-01T02:24:00.321Z,83.98
2023-02-01T02:27:29.160Z,84.39
2023-02-01T02:30:45.914Z,84.31
2023-02-01T02:34:03.361Z,84.19
2023-02-01T02:37:11.185Z,84.22
2023-02-01T02:40:21.984Z,83.99
2023-02-01T02:43:31.679Z,83.99
2023-02-01T02:46:38.437Z,83.79
2023-02-01T02:49:50.995Z,83.63
2023-02-01T02:53:03.054Z,83.61
2023-02-01T02:56:06.895Z,83.20
2023-02-01T02:59:10.043Z,83.01
2023-02-01T03:02:12.949Z,82.57
2023-02-01T03:08:17.453Z,82.74
2023-02-01T03:11:19.021Z,82.33
2023-02-01T03:14:22.416Z,82.15
2023-02-01T03:17:30.355Z,82.39
2023-02-01T03:20:32.964Z,82.15
2023-02-01T03:23:36.385Z,81.95
2023-02-01T03:26:40.922Z,81.85
2023-02-01T03:29:50.047Z,81.80
2023-02-01T03:32:55.635Z,82.08
2023-02-01T03:36:03.736Z,82.27
2023-02-01T03:39:10.969Z,81.63
2023-02-01T03:42:20.521Z,82.02
2023-02-01T03:45:29.929Z,81.88
2023-02-01T03:48:32.449Z,81.84
2023-02-01T03:51:34.901Z,81.93
2023-02-01T03:54:37.806Z,81.95
2023-02-01T03:57:44.393Z,81.92
2023-02-01T04:00:51.079Z,81.84
2023-02-01T04:03:52.746Z,81.93
2023-02-01T04:06:54.184Z,81.86
2023-02-01T04:09:56.013Z,81.76
2023-02-01T04:12:57.556Z,82.22
2023-02-01T04:15:59.179Z,82.25
2023-02-01T04:19:01.372Z,82.31
2023-02-01T04:22:03.072Z,82.50
2023-02-01T04:25:04.831Z,82.58
2023-02-01T04:28:06.544Z,82.83
2023-02-01T04:31:08.221Z,82.81
2023-02-01T04:34:09.762Z,83.16
2023-02-01T04:37:11.397Z,83.13
2023-02-01T04:40:13.337Z,83.43
2023-02-01T04:43:15.198Z,83.55
2023-02-01T04:46:16.891Z,83.17
2023-02-01T04:49:18.420Z,83.36
2023-02-01T04:52:20.017Z,83.05
2023-02-01T04:55:21.637Z,83.23
2023-02-01T04:58:23.208Z,82.99
2023-02-01T05:01:25.093Z,83.19
2023-02-01T05:04:26.916Z,82.93
2023-02-01T05:07:28.573Z,82.13
2023-02-01T05:10:30.250Z,81.76
2023-02-01T05:13:32.017Z,82.45
2023-02-01T05:16:33.614Z,83.06
2023-02-01T05:19:35.202Z,82.97
2023-02-01T05:22:36.828Z,83.41
2023-02-01T05:25:38.308Z,83.40
2023-02-01T05:28:39.946Z,84.04
2023-02-01T05:31:41.624Z,84.44
2023-02-01T05:34:43.283Z,84.29
2023-02-01T05:37:44.922Z,84.13
2023-02-01T05:40:46.540Z,84.40
2023-02-01T05:43:48.040Z,84.33
2023-02-01T05:46:50.266Z,84.21
2023-02-01T05:49:52.162Z,84.04
2023-02-01T05:52:53.677Z,84.07
2023-02-01T05:55:55.203Z,83.81
2023-02-01T05:58:56.784Z,83.74
2023-02-01T06:01:58.490Z,83.65
2023-02-01T06:05:00.057Z,83.62
2023-02-01T06:08:01.689Z,83.79
2023-02-01T06:11:05.139Z,83.70
2023-02-01T06:14:06.915Z,84.03
2023-02-01T06:17:09.011Z,84.28
2023-02-01T06:20:12.222Z,84.11
2023-02-01T06:23:13.824Z,85.02
2023-02-01T06:26:15.504Z,85.63
2023-02-01T06:29:17.168Z,85.26
2023-02-01T06:32:18.796Z,84.94
2023-02-01T06:35:20.382Z,84.40
2023-02-01T06:38:21.949Z,84.24
2023-02-01T06:41:24.259Z,84.16
2023-02-01T06:44:25.851Z,84.10
2023-02-01T06:47:27.486Z,84.09
2023-02-01T06:50:29.131Z,83.90
2023-02-01T06:53:31.434Z,83.83
2023-02-01T06:56:32.929Z,83.56
2023-02-01T06:59:34.487Z,83.35
2023-02-01T07:02:36.093Z,83.09
2023-02-01T07:05:37.861Z,82.77
2023-02-01T07:08:39.520Z,83.08
2023-02-01T07:11:41.220Z,82.91
2023-02-01T07:14:42.871Z,81.64
2023-02-01T07:17:44.416Z,79.92
2023-02-01T07:20:51.313Z,80.32
2023-02-01T07:23:52.893Z,79.93
2023-02-01T07:26:54.692Z,80.29
2023-02-01T07:29:56.211Z,79.58
2023-02-01T07:32:58.117Z,78.76
2023-02-01T07:36:02.228Z,78.41
2023-02-01T07:39:04.917Z,78.46
2023-02-01T07:42:06.668Z,78.35
2023-02-01T07:45:20.824Z,77.78
2023-02-01T07:48:24.434Z,78.33
2023-02-01T07:51:26.164Z,77.85
2023-02-01T07:54:27.940Z,77.89
2023-02-01T07:57:29.523Z,77.56
2023-02-01T08:00:31.271Z,77.04
2023-02-01T08:03:32.784Z,77.62
2023-02-01T08:06:34.833Z,77.61
2023-02-01T08:09:36.559Z,76.54
2023-02-01T08:12:38.383Z,75.50
2023-02-01T08:15:39.993Z,75.03
2023-02-01T08:19:00.197Z,75.10
2023-02-01T08:22:20.649Z,74.71
2023-02-01T08:25:22.684Z,74.13
2023-02-01T08:28:24.560Z,74.51
2023-02-01T08:31:28.199Z,72.94
2023-02-01T08:34:30.207Z,73.78
2023-02-01T08:37:32.513Z,72.40
2023-02-01T08:40:34.279Z,72.11
2023-02-01T08:43:36.131Z,70.53
2023-02-01T08:46:37.779Z,69.49
2023-02-01T08:49:39.240Z,70.72
2023-02-01T08:52:40.976Z,71.14
2023-02-01T08:55:42.617Z,71.59
2023-02-01T08:58:44.551Z,71.53
2023-02-01T09:01:46.184Z,71.41
2023-02-01T09:04:48.095Z,71.21
2023-02-01T09:07:49.701Z,70.47
2023-02-01T09:10:51.236Z,71.34
2023-02-01T09:13:52.773Z,71.02
2023-02-01T09:16:54.473Z,71.79
2023-02-01T09:19:56.078Z,71.69
2023-02-01T09:22:58.170Z,71.84
2023-02-01T09:26:04.151Z,70.93
2023-02-01T09:29:06.376Z,70.66
2023-02-01T09:32:08.238Z,70.07
2023-02-01T09:35:10.058Z,69.96
2023-02-01T09:38:11.838Z,70.24
2023-02-01T09:41:50.906Z,68.84
2023-02-01T09:45:08.196Z,68.44
2023-02-01T09:48:18.778Z,69.09
2023-02-01T09:51:24.906Z,70.42
2023-02-01T09:54:30.603Z,70.92
2023-02-01T09:57:43.101Z,70.47
2023-02-01T10:01:04.656Z,70.52
2023-02-01T10:04:09.617Z,70.27
2023-02-01T10:07:37.682Z,70.00
2023-02-01T10:10:49.098Z,70.76
2023-02-01T10:14:03.613Z,71.03
2023-02-01T10:17:44.465Z,70.10
2023-02-01T10:21:09.662Z,70.22
2023-02-01T10:24:33.808Z,68.27
2023-02-01T10:27:39.396Z,68.36
2023-02-01T10:30:45.414Z,67.75
2023-02-01T10:33:50.423Z,68.16
2023-02-01T10:37:20.733Z,68.59
2023-02-01T10:40:25.772Z,69.69
2023-02-01T10:43:27.622Z,69.52
2023-02-01T10:46:29.188Z,69.10
2023-02-01T10:49:37.856Z,70.20
2023-02-01T10:52:47.603Z,70.02
2023-02-01T10:55:51.228Z,69.94
2023-02-01T10:59:01.710Z,70.74
2023-02-01T11:02:35.635Z,71.24
2023-02-01T11:05:47.490Z,71.35
2023-02-01T11:08:49.817Z,71.66
2023-02-01T11:11:51.320Z,71.67
2023-02-01T11:14:59.882Z,72.50
2023-02-01T11:18:16.444Z,72.11
2023-02-01T11:21:18.174Z,72.53
2023-02-01T11:24:27.094Z,72.53
2023-02-01T11:27:28.986Z,72.40
2023-02-01T11:30:38.016Z,72.60
2023-02-01T11:33:47.317Z,72.46
2023-02-01T11:36:50.188Z,72.24
2023-02-01T11:39:59.231Z,72.69
2023-02-01T11:43:08.890Z,73.13
2023-02-01T11:46:18.987Z,73.19
2023-02-01T11:49:28.239Z,72.78
2023-02-01T11:52:55.718Z,73.01
2023-02-01T11:56:21.124Z,73.39
2023-02-01T11:59:31.654Z,73.28
2023-02-01T12:02:58.076Z,72.91
2023-02-01T12:06:23.313Z,72.95
2023-02-01T12:09:51.938Z,72.95
2023-02-01T12:13:02.626Z,73.45
2023-02-01T12:16:07.555Z,73.00
2023-02-01T12:19:28.732Z,73.33
2023-02-01T12:22:50.874Z,73.59
2023-02-01T12:26:18.626Z,73.72
2023-02-01T12:29:55.649Z,74.42
2023-02-01T12:33:19.301Z,74.52
2023-02-01T12:36:44.189Z,74.51
2023-02-01T12:40:07.201Z,75.04
2023-02-01T12:43:13.658Z,75.19
2023-02-01T12:46:27.007Z,75.57
2023-02-01T12:49:35.886Z,75.70
2023-02-01T12:52:48.266Z,75.82
2023-02-01T12:55:55.667Z,75.88
2023-02-01T12:58:59.959Z,75.56
2023-02-01T13:02:11.201Z,75.71
2023-02-01T13:05:28.849Z,75.82
2023-02-01T13:08:48.607Z,76.08
2023-02-01T13:11:53.161Z,75.85
2023-02-01T13:14:58.267Z,75.07
2023-02-01T13:18:03.198Z,74.78
2023-02-01T13:21:09.952Z,74.52
2023-02-01T13:24:27.844Z,74.40
2023-02-01T13:27:30.745Z,74.51
2023-02-01T13:31:03.808Z,74.30
2023-02-01T13:34:30.775Z,74.70
2023-02-01T13:38:05.754Z,75.01
2023-02-01T13:41:29.871Z,74.25
2023-02-01T13:44:35.611Z,74.41
2023-02-01T13:47:44.464Z,74.12
2023-02-01T13:50:52.404Z,73.89
2023-02-01T13:53:54.065Z,74.06
2023-02-01T13:56:55.553Z,74.51
2023-02-01T14:00:07.883Z,74.18
2023-02-01T14:03:13.063Z,73.83
2023-02-01T14:06:27.222Z,73.74
2023-02-01T14:09:35.004Z,73.17
2023-02-01T14:12:47.923Z,73.81
2023-02-01T14:16:05.192Z,73.80
2023-02-01T14:19:28.087Z,74.24
2023-02-01T14:22:36.344Z,73.99
2023-02-01T14:25:38.643Z,74.25
2023-02-01T14:28:55.521Z,74.19
2023-02-01T14:32:04.998Z,74.64
2023-02-01T14:35:13.487Z,74.97
2023-02-01T14:38:15.245Z,74.93
2023-02-01T14:41:25.375Z,75.00
2023-02-01T14:44:29.969Z,75.28
2023-02-01T14:47:32.609Z,74.92
2023-02-01T14:50:34.645Z,75.06
2023-02-01T14:53:36.441Z,74.30
2023-02-01T14:56:37.959Z,74.60
2023-02-01T14:59:41.220Z,74.68
2023-02-01T15:02:44.935Z,75.00
2023-02-01T15:05:46.545Z,76.11
2023-02-01T15:08:48.284Z,76.68
2023-02-01T15:12:11.761Z,77.17
2023-02-01T15:15:15.215Z,77.21
2023-02-01T15:18:18.095Z,77.36
2023-02-01T15:21:28.073Z,77.40
2023-02-01T15:24:34.649Z,77.17
2023-02-01T15:27:37.354Z,77.16
2023-02-01T15:30:39.098Z,77.95
2023-02-01T15:33:40.646Z,79.33
2023-02-01T15:36:56.624Z,80.32
2023-02-01T15:40:10.930Z,81.52
2023-02-01T15:43:13.124Z,82.51
2023-02-01T15:46:19.850Z,82.61
2023-02-01T15:49:37.426Z,83.26
2023-02-01T15:52:41.022Z,83.15
2023-02-01T15:55:43.601Z,83.93
2023-02-01T15:58:47.325Z,84.30
2023-02-01T16:01:49.467Z,83.77
2023-02-01T16:04:51.252Z,83.36
2023-02-01T16:08:05.319Z,83.83
2023-02-01T16:11:10.187Z,84.56
2023-02-01T16:14:11.854Z,84.80
2023-02-01T16:17:13.526Z,84.79
2023-02-01T16:20:15.127Z,84.38
2023-02-01T16:23:17.069Z,83.66
2023-02-01T16:26:19.916Z,83.76
2023-02-01T16:29:21.461Z,83.57
2023-02-01T16:32:23.397Z,83.72
2023-02-01T16:35:30.101Z,83.63
2023-02-01T16:38:32.424Z,84.07
2023-02-01T16:41:34.117Z,84.15
2023-02-01T16:44:35.698Z,83.96
2023-02-01T16:47:38.680Z,83.54
2023-02-01T16:50:40.282Z,83.47
2023-02-01T16:53:53.447Z,83.56
2023-02-01T16:56:56.106Z,83.05
2023-02-01T16:59:57.580Z,83.19
2023-02-01T17:02:59.131Z,83.02
2023-02-01T17:06:00.795Z,82.78
2023-02-01T17:09:02.312Z,82.90
2023-02-01T17:12:05.259Z,82.80
2023-02-01T17:15:07.230Z,83.02
2023-02-01T17:18:11.766Z,83.12
2023-02-01T17:21:13.419Z,83.03
2023-02-01T17:24:17.336Z,83.06
2023-02-01T17:27:19.043Z,83.41
2023-02-01T17:30:20.509Z,83.57
2023-02-01T17:33:29.053Z,83.47
2023-02-01T17:36:37.925Z,83.83
2023-02-01T17:39:39.611Z,83.64
2023-02-01T17:42:41.067Z,83.75
2023-02-01T17:45:47.234Z,84.18
2023-02-01T17:48:48.819Z,84.04
2023-02-01T17:51:50.402Z,84.14
2023-02-01T17:54:52.031Z,84.20
2023-02-01T17:57:53.742Z,84.08
2023-02-01T18:00:55.185Z,84.04
2023-02-01T18:03:57.076Z,83.74
2023-02-01T18:06:58.777Z,83.61
2023-02-01T18:10:00.440Z,83.73
2023-02-01T18:13:02.346Z,83.79
2023-02-01T18:16:04.356Z,83.85
2023-02-01T18:19:06.188Z,83.67
2023-02-01T18:22:15.525Z,83.55
2023-02-01T18:25:19.765Z,83.42
2023-02-01T18:28:21.418Z,83.39
2023-02-01T18:31:26.052Z,82.94
2023-02-01T18:34:27.768Z,83.37
2023-02-01T18:37:29.529Z,82.91
2023-02-01T18:40:36.496Z,82.74
2023-02-01T18:43:38.001Z,82.33
2023-02-01T18:46:39.546Z,82.66
2023-02-01T18:49:41.115Z,83.00
2023-02-01T18:52:42.752Z,83.39
2023-02-01T18:55:44.375Z,83.89
2023-02-01T18:58:46.531Z,83.72
2023-02-01T19:01:48.273Z,83.70
2023-02-01T19:04:49.937Z,83.66
2023-02-01T19:07:51.766Z,83.90
2023-02-01T19:10:54.375Z,83.74
2023-02-01T19:13:56.044Z,83.75
2023-02-01T19:16:57.656Z,83.88
2023-02-01T19:19:59.319Z,84.21
2023-02-01T19:23:00.968Z,84.13
2023-02-01T19:26:02.747Z,84.03
2023-02-01T19:29:04.416Z,84.20
2023-02-01T19:32:06.538Z,83.75
2023-02-01T19:35:09.586Z,83.64
2023-02-01T19:38:30.207Z,83.47
2023-02-01T19:41:31.872Z,83.57
2023-02-01T19:44:33.846Z,83.42
2023-02-01T19:47:35.839Z,83.33
2023-02-01T19:50:37.483Z,83.21
2023-02-01T19:53:39.073Z,83.00
2023-02-01T19:56:41.011Z,83.03
2023-02-01T19:59:42.715Z,83.04
2023-02-01T20:02:43.369Z,83.43
2023-02-01T20:05:45.225Z,83.50
2023-02-01T20:08:48.303Z,83.53
2023-02-01T20:11:50.809Z,83.54
2023-02-01T20:14:52.529Z,83.57
2023-02-01T20:17:54.070Z,83.91
2023-02-01T20:20:57.554Z,83.93
2023-02-01T20:23:59.299Z,84.53
2023-02-01T20:27:01.730Z,84.23
2023-02-01T20:30:04.391Z,84.00
2023-02-01T20:33:05.993Z,83.78
2023-02-01T20:36:08.139Z,83.67
2023-02-01T20:39:09.728Z,83.86
2023-02-01T20:42:11.328Z,84.43
2023-02-01T20:45:13.029Z,84.84
2023-02-01T20:48:15.981Z,84.77
2023-02-01T20:51:20.036Z,82.84
2023-02-01T20:54:21.701Z,82.15
2023-02-01T20:57:23.568Z,83.06
2023-02-01T21:00:25.020Z,83.44
2023-02-01T21:03:27.064Z,83.25
2023-02-01T21:06:28.857Z,83.48
2023-02-01T21:09:30.680Z,83.41
2023-02-01T21:12:32.254Z,83.72
2023-02-01T21:15:35.973Z,84.11
2023-02-01T21:18:37.776Z,83.72
2023-02-01T21:21:39.503Z,83.88
2023-02-01T21:24:41.261Z,84.03
2023-02-01T21:27:42.987Z,83.83
2023-02-01T21:30:44.550Z,83.46
2023-02-01T21:33:48.466Z,84.27
2023-02-01T21:36:50.117Z,85.78
2023-02-01T21:39:52.102Z,85.25
2023-02-01T21:42:53.695Z,85.60
2023-02-01T21:45:55.329Z,85.47
2023-02-01T21:49:04.732Z,85.57
2023-02-01T21:52:07.950Z,85.75
2023-02-01T21:55:10.056Z,85.28
2023-02-01T21:58:11.675Z,84.64
2023-02-01T22:01:13.284Z,84.42
2023-02-01T22:04:14.903Z,84.41
2023-02-01T22:07:16.621Z,84.74
2023-02-01T22:10:18.228Z,84.41
2023-02-01T22:13:19.786Z,85.06
2023-02-01T22:16:22.162Z,84.93
2023-02-01T22:19:23.864Z,85.14
2023-02-01T22:22:25.517Z,85.27
2023-02-01T22:25:27.297Z,85.02
2023-02-01T22:28:31.773Z,85.55
2023-02-01T22:31:35.408Z,85.16
2023-02-01T22:34:37.219Z,85.04
2023-02-01T22:37:38.952Z,84.89
2023-02-01T22:40:40.559Z,84.83
2023-02-01T22:43:42.426Z,84.73
2023-02-01T22:46:44.244Z,85.02
2023-02-01T22:49:45.689Z,84.92
2023-02-01T22:52:47.549Z,85.24
2023-02-01T22:55:49.231Z,85.79
2023-02-01T22:58:55.120Z,85.71
2023-02-01T23:01:56.699Z,85.89
2023-02-01T23:04:58.310Z,85.71
2023-02-01T23:07:59.817Z,86.13
2023-02-01T23:11:05.599Z,86.42
2023-02-01T23:14:07.568Z,86.56
2023-02-01T23:17:09.144Z,86.83
2023-02-01T23:20:16.677Z,86.68
2023-02-01T23:23:18.286Z,87.17
2023-02-01T23:26:20.441Z,86.53
2023-02-01T23:29:22.143Z,86.52
2023-02-01T23:32:23.816Z,86.52
2023-02-01T23:35:25.916Z,86.31
2023-02-01T23:38:28.686Z,86.41
2023-02-01T23:41:30.320Z,85.88
2023-02-01T23:44:31.941Z,85.66
2023-02-01T23:47:33.892Z,85.37
2023-02-01T23:50:35.406Z,85.24
2023-02-01T23:53:37.327Z,84.98
2023-02-01T23:56:43.793Z,84.86
2023-02-01T23:59:45.444Z,84.73
